createdAt,value
2019-04-23T00:01:46.346Z,9.30
2019-04-23T00:04:10.174Z,9.57
2019-04-23T00:06:51.339Z,8.87
2019-04-23T00:09:24.298Z,9.63
2019-04-23T00:11:49.602Z,10.90
2019-04-23T00:14:20.716Z,9.40
2019-04-23T00:16:52.121Z,9.97
2019-04-23T00:19:25.482Z,9.27
2019-04-23T00:22:05.465Z,13.00
2019-04-23T00:32:23.440Z,10.80
2019-04-23T00:34:55.864Z,11.17
2019-04-23T00:37:25.700Z,9.93
2019-04-23T00:39:52.319Z,11.30
2019-04-23T00:42:32.975Z,12.83
2019-04-23T00:47:33.301Z,13.13
2019-04-23T00:50:09.085Z,9.90
2019-04-23T00:55:10.707Z,12.30
2019-04-23T00:57:38.889Z,12.07
2019-04-23T01:00:14.076Z,12.00
2019-04-23T01:02:37.274Z,12.97
2019-04-23T01:05:11.365Z,10.73
2019-04-23T01:07:38.360Z,12.60
2019-04-23T01:10:27.767Z,11.73
2019-04-23T01:13:02.236Z,10.23
2019-04-23T01:15:32.640Z,11.03
2019-04-23T01:18:10.902Z,14.23
2019-04-23T01:20:46.809Z,10.77
2019-04-23T01:22:50.864Z,11.00
2019-04-23T01:25:36.435Z,10.73
2019-04-23T01:28:26.651Z,12.57
2019-04-23T01:31:02.274Z,12.80
2019-04-23T01:33:35.830Z,12.50
2019-04-23T01:38:41.717Z,11.90
2019-04-23T01:41:09.623Z,12.97
2019-04-23T01:43:36.525Z,13.17
2019-04-23T01:46:09.675Z,12.00
2019-04-23T01:48:40.542Z,11.80
2019-04-23T01:51:02.485Z,12.30
2019-04-23T01:53:45.697Z,11.83
2019-04-23T01:56:12.540Z,10.73
2019-04-23T01:58:43.930Z,12.83
2019-04-23T02:01:20.745Z,15.17
2019-04-23T02:06:28.179Z,11.40
2019-04-23T02:08:52.222Z,12.63
2019-04-23T02:11:16.466Z,12.77
2019-04-23T02:13:54.782Z,11.27
2019-04-23T02:16:32.768Z,12.77
2019-04-23T02:18:59.515Z,11.63
2019-04-23T02:21:33.468Z,11.20
2019-04-23T02:24:07.986Z,13.20
2019-04-23T02:26:36.814Z,13.47
2019-04-23T02:29:23.545Z,13.60
2019-04-23T02:31:58.042Z,11.47
2019-04-23T02:34:35.690Z,12.13
2019-04-23T02:39:21.788Z,14.23
2019-04-23T02:47:14.928Z,13.07
2019-04-23T02:49:35.888Z,13.43
2019-04-23T02:52:08.036Z,12.73
2019-04-23T02:56:59.197Z,12.93
2019-04-23T03:02:37.108Z,13.00
2019-04-23T03:05:02.505Z,14.57
2019-04-23T03:10:00.437Z,14.57
2019-04-23T03:21:11.797Z,15.50
2019-04-23T03:23:34.385Z,13.80
2019-04-23T03:26:15.974Z,13.03
2019-04-23T03:29:01.775Z,14.60
2019-04-23T03:38:48.474Z,15.20
2019-04-23T03:48:54.990Z,14.37
2019-04-23T03:51:28.800Z,13.93
2019-04-23T03:56:38.035Z,15.50
2019-04-23T03:59:05.810Z,18.10
2019-04-23T04:01:29.875Z,14.80
2019-04-23T04:04:22.630Z,17.63
2019-04-23T04:09:24.163Z,14.43
2019-04-23T04:11:45.028Z,15.50
2019-04-23T04:14:20.713Z,17.60
2019-04-23T04:16:42.551Z,18.73
2019-04-23T04:21:52.586Z,18.63
2019-04-23T04:24:24.807Z,22.20
2019-04-23T04:26:57.965Z,17.40
2019-04-23T04:29:21.075Z,17.03
2019-04-23T04:31:54.246Z,18.10
2019-04-23T04:34:39.809Z,18.07
2019-04-23T04:37:24.296Z,16.80
2019-04-23T04:39:33.570Z,16.80
2019-04-23T04:42:05.566Z,16.60
2019-04-23T04:49:48.637Z,17.93
2019-04-23T04:54:22.662Z,17.87
2019-04-23T04:57:12.706Z,18.97
2019-04-23T04:59:50.291Z,18.10
2019-04-23T05:02:22.467Z,19.30
2019-04-23T05:04:52.563Z,18.10
2019-04-23T05:14:52.495Z,17.83
2019-04-23T05:17:48.431Z,19.23
2019-04-23T05:20:04.588Z,16.90
2019-04-23T05:22:49.359Z,17.03
2019-04-23T05:25:09.131Z,19.00
2019-04-23T05:27:46.351Z,16.53
2019-04-23T05:32:41.588Z,16.73
2019-04-23T05:35:26.181Z,18.13
2019-04-23T05:38:02.457Z,18.27
2019-04-23T05:45:25.846Z,19.30
2019-04-23T05:48:05.131Z,17.13
2019-04-23T05:50:39.239Z,18.70
2019-04-23T05:52:59.505Z,17.27
2019-04-23T05:55:29.749Z,17.70
2019-04-23T05:58:03.681Z,19.43
2019-04-23T06:00:41.585Z,17.70
2019-04-23T06:03:12.062Z,18.60
2019-04-23T06:05:38.765Z,17.10
2019-04-23T06:08:11.977Z,16.10
2019-04-23T06:10:40.639Z,19.37
2019-04-23T06:13:16.806Z,20.73
2019-04-23T06:18:17.147Z,19.40
2019-04-23T06:20:53.436Z,18.37
2019-04-23T06:23:26.814Z,18.97
2019-04-23T06:28:24.502Z,16.87
2019-04-23T06:30:55.101Z,18.73
2019-04-23T06:33:25.766Z,17.83
2019-04-23T06:36:01.809Z,22.03
2019-04-23T06:41:00.740Z,17.20
2019-04-23T06:43:32.052Z,16.87
2019-04-23T06:46:08.297Z,18.00
2019-04-23T06:48:35.134Z,18.10
2019-04-23T06:51:15.887Z,18.70
2019-04-23T06:53:37.443Z,16.33
2019-04-23T06:56:26.441Z,17.90
2019-04-23T06:58:45.605Z,17.37
2019-04-23T07:01:13.408Z,17.73
2019-04-23T07:03:51.800Z,18.03
2019-04-23T07:09:05.362Z,16.73
2019-04-23T07:14:02.446Z,15.57
2019-04-23T07:16:21.633Z,16.27
2019-04-23T07:18:54.581Z,16.70
2019-04-23T07:26:36.091Z,13.97
2019-04-23T07:29:05.063Z,14.33
2019-04-23T07:31:38.169Z,15.87
2019-04-23T07:34:08.102Z,14.07
2019-04-23T07:39:27.444Z,15.50
2019-04-23T07:48:03.449Z,15.10
2019-04-23T07:50:38.191Z,15.83
2019-04-23T07:53:05.545Z,13.03
2019-04-23T07:55:41.410Z,15.27
2019-04-23T07:58:12.311Z,12.30
2019-04-23T08:00:41.878Z,14.33
2019-04-23T08:03:13.905Z,12.03
2019-04-23T08:05:42.507Z,17.20
2019-04-23T08:08:07.162Z,13.07
2019-04-23T08:10:53.871Z,16.03
2019-04-23T08:13:16.081Z,14.23
2019-04-23T08:18:26.052Z,15.13
2019-04-23T08:20:49.614Z,17.27
2019-04-23T08:23:35.850Z,16.00
2019-04-23T08:26:26.839Z,13.67
2019-04-23T08:31:34.438Z,15.20
2019-04-23T08:34:05.536Z,15.67
2019-04-23T08:38:57.068Z,12.30
2019-04-23T08:41:33.453Z,13.03
2019-04-23T08:44:07.026Z,15.80
2019-04-23T08:46:56.964Z,16.83
2019-04-23T08:54:37.008Z,17.17
2019-04-23T08:59:33.158Z,14.70
2019-04-23T09:02:18.899Z,13.77
2019-04-23T09:04:30.893Z,15.77
2019-04-23T09:07:14.602Z,12.77
2019-04-23T09:09:48.071Z,17.93
2019-04-23T09:12:07.738Z,15.77
2019-04-23T09:14:42.143Z,16.43
2019-04-23T09:17:13.696Z,14.43
2019-04-23T09:20:03.569Z,16.63
2019-04-23T09:22:29.606Z,14.83
2019-04-23T09:27:22.616Z,10.63
2019-04-23T09:29:51.604Z,13.07
2019-04-23T09:35:14.548Z,12.13
2019-04-23T09:37:59.638Z,13.57
2019-04-23T09:41:11.566Z,16.03
2019-04-23T09:43:34.571Z,15.03
2019-04-23T09:48:58.130Z,16.07
2019-04-23T09:51:27.912Z,11.90
2019-04-23T09:53:59.440Z,14.30
2019-04-23T09:56:30.168Z,13.57
2019-04-23T09:59:02.327Z,15.43
2019-04-23T10:03:50.591Z,11.73
2019-04-23T10:06:18.244Z,15.37
2019-04-23T10:08:47.501Z,13.73
2019-04-23T10:11:13.855Z,14.17
2019-04-23T10:13:45.059Z,14.63
2019-04-23T10:16:17.332Z,13.97
2019-04-23T10:18:47.082Z,14.53
2019-04-23T10:21:17.472Z,12.90
2019-04-23T10:23:47.637Z,10.77
2019-04-23T10:26:17.583Z,11.20
2019-04-23T10:29:00.249Z,10.30
2019-04-23T10:31:31.442Z,13.47
2019-04-23T10:34:02.082Z,11.73
2019-04-23T10:36:32.599Z,14.30
2019-04-23T10:39:12.841Z,13.13
2019-04-23T10:41:38.436Z,12.07
2019-04-23T10:44:14.895Z,14.07
2019-04-23T10:47:38.167Z,12.10
2019-04-23T10:50:37.424Z,10.63
2019-04-23T10:53:10.249Z,13.77
2019-04-23T10:55:42.387Z,12.97
2019-04-23T10:58:12.615Z,10.90
2019-04-23T11:00:42.155Z,13.97
2019-04-23T11:03:20.621Z,10.17
2019-04-23T11:05:53.919Z,9.43
2019-04-23T11:08:10.971Z,12.00
2019-04-23T11:10:46.834Z,13.60
2019-04-23T11:13:33.820Z,12.80
2019-04-23T11:16:27.587Z,11.33
2019-04-23T11:18:40.077Z,13.10
2019-04-23T11:21:07.403Z,17.20
2019-04-23T11:23:34.378Z,9.90
2019-04-23T11:26:07.057Z,12.50
2019-04-23T11:31:26.009Z,11.30
2019-04-23T11:33:51.054Z,9.87
2019-04-23T11:41:32.359Z,13.10
2019-04-23T11:43:58.936Z,8.37
2019-04-23T11:46:41.247Z,9.67
2019-04-23T11:54:07.447Z,9.67
2019-04-23T11:56:51.487Z,12.23
2019-04-23T11:59:11.852Z,12.63
2019-04-23T12:02:00.719Z,9.13
2019-04-23T12:07:34.354Z,10.97
2019-04-23T12:10:22.199Z,11.03
2019-04-23T12:12:39.903Z,11.63
2019-04-23T12:15:25.382Z,12.03
2019-04-23T12:20:20.932Z,9.07
2019-04-23T12:25:26.731Z,9.50
2019-04-23T12:27:44.166Z,10.77
2019-04-23T12:33:03.317Z,9.27
2019-04-23T12:35:29.102Z,10.87
2019-04-23T12:38:08.931Z,11.70
2019-04-23T12:40:37.912Z,11.30
2019-04-23T12:45:51.978Z,10.73
2019-04-23T12:48:45.016Z,11.83
2019-04-23T12:50:50.064Z,9.17
2019-04-23T12:53:25.588Z,12.00
2019-04-23T12:55:43.809Z,8.83
2019-04-23T12:58:26.880Z,12.70
2019-04-23T13:00:48.216Z,11.63
2019-04-23T13:05:51.019Z,9.20
2019-04-23T13:08:39.758Z,9.53
2019-04-23T13:10:57.306Z,9.53
2019-04-23T13:13:37.596Z,12.00
2019-04-23T13:16:25.486Z,12.60
2019-04-23T13:18:39.603Z,11.37
2019-04-23T13:21:22.222Z,13.90
2019-04-23T13:23:39.382Z,15.77
2019-04-23T13:26:04.183Z,15.13
2019-04-23T13:28:45.604Z,18.03
2019-04-23T13:31:30.185Z,10.40
2019-04-23T13:36:32.740Z,17.27
2019-04-23T13:39:14.723Z,10.67
2019-04-23T13:41:26.107Z,15.70
2019-04-23T13:43:48.449Z,13.20
2019-04-23T13:46:31.322Z,13.87
2019-04-23T13:49:00.660Z,18.70
2019-04-23T13:51:34.212Z,10.93
2019-04-23T13:54:15.832Z,12.67
2019-04-23T13:57:04.679Z,17.33
2019-04-23T13:59:16.517Z,14.70
2019-04-23T14:01:43.045Z,13.57
2019-04-23T14:04:34.966Z,15.00
2019-04-23T14:06:57.512Z,12.07
2019-04-23T14:09:41.363Z,11.87
2019-04-23T14:12:02.047Z,11.20
2019-04-23T14:14:41.712Z,14.03
2019-04-23T14:17:17.998Z,9.60
2019-04-23T14:19:41.952Z,13.37
2019-04-23T14:22:34.081Z,16.73
2019-04-23T14:24:59.282Z,14.07
2019-04-23T14:27:24.489Z,17.03
2019-04-23T14:30:05.356Z,13.27
2019-04-23T14:37:16.975Z,11.97
2019-04-23T14:39:53.033Z,15.97
2019-04-23T14:42:39.239Z,11.50
2019-04-23T14:45:13.573Z,17.17
2019-04-23T14:47:54.342Z,16.97
2019-04-23T14:50:25.668Z,16.43
2019-04-23T14:52:40.738Z,14.07
2019-04-23T15:00:18.618Z,12.70
2019-04-23T15:02:54.391Z,14.70
2019-04-23T15:05:17.531Z,14.77
2019-04-23T15:08:06.995Z,11.40
2019-04-23T15:12:51.849Z,18.43
2019-04-23T15:15:26.932Z,14.37
2019-04-23T15:17:56.489Z,16.53
2019-04-23T15:23:16.555Z,20.93
2019-04-23T15:25:40.226Z,16.13
2019-04-23T15:28:07.298Z,13.53
2019-04-23T15:30:27.665Z,14.97
2019-04-23T15:33:16.799Z,18.60
2019-04-23T15:36:08.759Z,19.60
2019-04-23T15:38:28.665Z,20.43
2019-04-23T15:40:45.428Z,24.87
2019-04-23T15:43:20.411Z,16.53
2019-04-23T15:45:44.553Z,20.17
2019-04-23T15:48:17.625Z,23.60
2019-04-23T15:50:53.742Z,19.23
2019-04-23T15:53:14.357Z,23.57
2019-04-23T15:55:49.312Z,22.87
2019-04-23T15:58:29.996Z,19.87
2019-04-23T16:01:15.552Z,20.63
2019-04-23T16:03:20.302Z,16.70
2019-04-23T16:05:50.810Z,21.73
2019-04-23T16:08:59.686Z,20.97
2019-04-23T16:19:17.672Z,23.17
2019-04-23T16:21:48.423Z,25.93
2019-04-23T16:24:13.570Z,25.60
2019-04-23T16:26:51.027Z,24.27
2019-04-23T16:32:04.057Z,21.57
2019-04-23T16:34:28.677Z,17.37
2019-04-23T16:37:04.726Z,24.50
2019-04-23T16:39:31.400Z,21.43
2019-04-23T16:42:08.552Z,22.50
2019-04-23T16:44:48.229Z,26.13
2019-04-23T16:47:18.613Z,20.77
2019-04-23T16:49:44.460Z,31.17
2019-04-23T16:52:14.659Z,19.93
2019-04-23T16:54:55.087Z,27.33
2019-04-23T17:00:09.689Z,30.03
2019-04-23T17:02:24.566Z,28.30
2019-04-23T17:04:54.440Z,29.40
2019-04-23T17:07:21.706Z,20.30
2019-04-23T17:10:12.628Z,26.07
2019-04-23T17:12:16.617Z,20.50
2019-04-23T17:15:05.362Z,28.37
2019-04-23T17:17:25.186Z,22.93
2019-04-23T17:20:08.892Z,27.53
2019-04-23T17:22:31.287Z,26.00
2019-04-23T17:25:16.041Z,23.37
2019-04-23T17:27:38.659Z,22.60
2019-04-23T17:30:11.546Z,27.53
2019-04-23T17:33:13.815Z,23.73
2019-04-23T17:36:05.418Z,18.83
2019-04-23T17:38:32.274Z,25.37
2019-04-23T17:41:10.151Z,21.27
2019-04-23T17:43:40.954Z,22.63
2019-04-23T17:46:05.371Z,15.17
2019-04-23T17:48:34.677Z,26.00
2019-04-23T17:51:16.541Z,20.83
2019-04-23T17:53:48.678Z,26.07
2019-04-23T17:59:07.225Z,21.13
2019-04-23T18:04:14.027Z,21.30
2019-04-23T18:06:37.680Z,28.03
2019-04-23T18:09:00.328Z,23.17
2019-04-23T18:14:03.893Z,25.23
2019-04-23T18:19:11.589Z,24.97
2019-04-23T18:21:44.593Z,28.10
2019-04-23T18:24:27.237Z,23.30
2019-04-23T18:27:06.716Z,22.23
2019-04-23T18:29:47.475Z,19.50
2019-04-23T18:32:43.205Z,19.57
2019-04-23T18:37:36.077Z,19.87
2019-04-23T18:40:04.848Z,25.70
2019-04-23T18:42:46.428Z,23.13
2019-04-23T18:45:23.008Z,25.77
2019-04-23T18:47:58.147Z,21.00
2019-04-23T18:50:29.180Z,18.87
2019-04-23T18:55:41.892Z,16.73
2019-04-23T18:58:00.275Z,18.23
2019-04-23T19:00:39.498Z,19.67
2019-04-23T19:03:31.867Z,20.07
2019-04-23T19:06:22.932Z,25.07
2019-04-23T19:14:39.037Z,17.40
2019-04-23T19:17:08.950Z,16.27
2019-04-23T19:19:29.675Z,27.27
2019-04-23T19:27:10.765Z,21.00
2019-04-23T19:32:00.756Z,14.53
2019-04-23T19:34:39.407Z,17.43
2019-04-23T19:39:44.388Z,16.67
2019-04-23T19:44:47.456Z,17.50
2019-04-23T19:47:17.583Z,15.30
2019-04-23T19:49:50.336Z,15.73
2019-04-23T19:52:21.244Z,19.60
2019-04-23T19:57:22.141Z,16.23
2019-04-23T20:02:44.901Z,23.93
2019-04-23T20:04:55.451Z,14.17
2019-04-23T20:07:43.789Z,16.50
2019-04-23T20:10:12.481Z,17.80
2019-04-23T20:12:36.903Z,15.53
2019-04-23T20:15:14.105Z,18.60
2019-04-23T20:17:51.241Z,16.90
2019-04-23T20:20:25.376Z,17.07
2019-04-23T20:22:48.932Z,19.50
2019-04-23T20:25:46.368Z,16.27
2019-04-23T20:27:52.400Z,19.73
2019-04-23T20:33:49.861Z,16.20
2019-04-23T20:35:48.740Z,19.27
2019-04-23T20:43:23.614Z,19.07
2019-04-23T20:46:01.074Z,17.27
2019-04-23T20:48:25.894Z,18.37
2019-04-23T20:50:52.630Z,19.93
2019-04-23T20:53:33.039Z,17.77
2019-04-23T20:56:17.544Z,22.23
2019-04-23T20:58:52.131Z,18.30
2019-04-23T21:01:24.921Z,20.10
2019-04-23T21:03:56.639Z,19.40
2019-04-23T21:06:47.100Z,21.73
2019-04-23T21:11:29.209Z,21.80
2019-04-23T21:18:55.606Z,24.97
2019-04-23T21:21:39.107Z,20.73
2019-04-23T21:24:01.335Z,19.70
2019-04-23T21:26:46.259Z,19.73
2019-04-23T21:29:09.222Z,22.03
2019-04-23T21:31:48.422Z,21.37
2019-04-23T21:34:17.786Z,21.53
2019-04-23T21:36:49.530Z,18.13
2019-04-23T21:42:14.123Z,22.23
2019-04-23T21:44:40.435Z,24.13
2019-04-23T21:47:09.105Z,21.40
2019-04-23T21:49:57.933Z,21.23
2019-04-23T21:52:17.938Z,20.40
2019-04-23T21:54:49.185Z,21.40
2019-04-23T21:57:27.841Z,19.57
2019-04-23T21:59:55.814Z,21.53
2019-04-23T22:05:03.019Z,18.97
2019-04-23T22:07:38.914Z,25.50
2019-04-23T22:09:57.530Z,20.13
2019-04-23T22:12:54.591Z,23.50
2019-04-23T22:14:50.449Z,21.07
2019-04-23T22:17:32.574Z,17.23
2019-04-23T22:20:10.893Z,22.40
2019-04-23T22:22:49.870Z,22.10
2019-04-23T22:25:21.666Z,17.53
2019-04-23T22:27:44.291Z,20.10
2019-04-23T22:30:04.849Z,25.13
2019-04-23T22:32:49.705Z,20.30
2019-04-23T22:35:10.522Z,23.27
2019-04-23T22:37:58.667Z,26.67
2019-04-23T22:40:16.592Z,20.37
2019-04-23T22:45:16.219Z,22.13
2019-04-23T22:47:55.014Z,26.23
2019-04-23T22:50:29.619Z,22.60
2019-04-23T22:53:00.647Z,22.67
2019-04-23T22:55:23.147Z,20.33
2019-04-23T23:00:24.842Z,19.67
2019-04-23T23:03:18.781Z,20.53
2019-04-23T23:08:24.099Z,25.43
2019-04-23T23:10:51.939Z,21.70
2019-04-23T23:13:20.689Z,20.80
2019-04-23T23:15:53.360Z,21.07
2019-04-23T23:18:28.463Z,21.03
2019-04-23T23:21:04.309Z,19.50
2019-04-23T23:23:29.769Z,22.73
2019-04-23T23:26:02.499Z,24.20
2019-04-23T23:36:12.384Z,21.57
2019-04-23T23:39:01.369Z,23.43
2019-04-23T23:41:20.803Z,24.27
2019-04-23T23:43:41.300Z,24.00
2019-04-23T23:46:24.354Z,22.70
2019-04-23T23:58:58.864Z,20.03
